Ana Sayfa
METAR-TAF:

METAR-TAF

Havaalanları :

N'Djamena, Çad

Enlem: 12-08N, Boylam: 015-02E, yükseklik: 295 m

Güncel hava durumu gözlemi

Rapor saat 09:00 UTC de 32 dakika önce yapıldı.
Rüzgar batı/güneybatıdan 10 kt
Sıcaklık 38°C
Nem 33%
Basınç 1010 hPa
Görüş mesafesi: 6000 m

METAR: FTTJ 240900Z 24010KT 6000 NSC 38/19 Q1010 NOSIG

Saat: 10:32 (09:32 UTC)

Tahmin

Rapor saat 05:00 UTC de 4 saat ve 32 dakika önce yapıldı.
Ayın 24'si saat 06 UTC'den ayın 25'si saat 12 UTC'ye kadar geçerli Tahmin
Rüzgar güneybatıdan 8 kt
Görüş mesafesi: 6000 m
Olasılık 40% :
Geçici
ayın 24'si saat 14 UTC'den ayın 24'si saat 19 UTC'ye kadar
Rüzgar değişken yönden 18 kt ve 35 kt'a kadar ani rüzgarlar
Görüş mesafesi: 2000 m
Savrulan toz, gök gürültülü fırtına, yağmur,

TAF: FTTJ 240500Z 2406/2512 22008KT 6000 NSC PROB40 TEMPO 2414/2419 VRB18G35KT 2000 BLDU TSRA

4.000'den fazla havaalanı için hava durumu gözlemleri ve tahminleri (METAR ve TAF raporları).

Kullanılabilir istasyonlar harita üzerinde sarı ve kırmızı noktalarla gösterilir.

İstasyonun adını görmek için fareyi noktanın üzerinde gezdirin.

Sonrasında hava gözlem ve tahminlerini görmek için tıklayın.

Haritayı değiştirmek için: yaklaştırmak için siyah artı işaretli yeşil düğmeye ve uzaklaştırmak için de eksi işaretli düğmeye hızla tıklayın; bitişik haritalar için yeşil okları kullanın.


METAR-TAF: